Time;durP1;ratioP1;P1;durP2;ratioP2;P2;SDS_P1;SDS_P2;PMS_P1;PMS_P2;Temp;Humidity;BMP_temperature;BMP_pressure;BME280_temperature;BME280_humidity;BME280_pressure;Samples;Min_cycle;Max_cycle;Signal;HPM_P1;HPM_P2
2022/04/24 00:01:57;;;;;;;14.15;7.78;;;10.60;99.90;;;;;;5096114;28;20043;-72
2022/04/24 00:04:24;;;;;;;11.68;7.82;;;10.70;99.90;;;;;;5078997;28;20039;-73
2022/04/24 00:06:53;;;;;;;9.90;7.53;;;10.60;99.90;;;;;;5095984;28;20411;-72
2022/04/24 00:09:20;;;;;;;10.40;7.43;;;10.60;99.90;;;;;;5095382;28;20040;-72
2022/04/24 00:11:46;;;;;;;13.23;7.25;;;10.60;99.90;;;;;;5095479;28;20051;-72
2022/04/24 00:14:12;;;;;;;11.25;6.95;;;10.60;99.90;;;;;;5095880;28;20633;-72
2022/04/24 00:16:38;;;;;;;12.68;7.70;;;10.60;99.90;;;;;;5095027;28;20031;-72
2022/04/24 00:19:04;;;;;;;9.65;7.10;;;10.50;99.90;;;;;;5095221;28;20040;-72
2022/04/24 00:21:30;;;;;;;12.88;7.88;;;10.50;99.90;;;;;;5112533;28;20040;-74
2022/04/24 00:23:56;;;;;;;13.65;7.75;;;10.40;99.90;;;;;;5095447;28;20550;-72
2022/04/24 00:26:21;;;;;;;10.52;6.82;;;10.40;99.90;;;;;;5113801;28;20043;-72
2022/04/24 00:28:47;;;;;;;11.82;7.90;;;10.50;99.90;;;;;;5094929;28;20403;-72
2022/04/24 00:31:13;;;;;;;12.63;7.38;;;10.40;99.90;;;;;;5113517;28;20503;-73
2022/04/24 00:33:38;;;;;;;13.60;7.35;;;10.40;99.90;;;;;;5094977;28;20039;-74
2022/04/24 00:36:04;;;;;;;9.77;7.10;;;10.40;99.90;;;;;;5113403;28;20602;-72
2022/04/24 00:38:32;;;;;;;9.68;7.10;;;10.30;99.90;;;;;;5094753;28;20043;-73
2022/04/24 00:40:58;;;;;;;10.63;7.63;;;10.30;99.90;;;;;;5078069;28;20028;-72
2022/04/24 00:43:23;;;;;;;10.98;7.10;;;10.30;99.90;;;;;;5113224;28;20035;-72
2022/04/24 00:45:59;;;;;;;12.55;7.45;;;10.30;99.90;;;;;;5113216;28;20357;-72
2022/04/24 00:48:26;;;;;;;11.77;7.00;;;10.30;99.90;;;;;;5113034;28;20415;-73
2022/04/24 00:50:52;;;;;;;12.15;7.15;;;10.10;99.90;;;;;;5113079;28;20063;-72
2022/04/24 00:53:17;;;;;;;10.35;7.75;;;10.20;99.90;;;;;;5113181;28;20466;-72
2022/04/24 00:55:43;;;;;;;10.70;6.93;;;10.20;99.90;;;;;;5113168;28;20058;-73
2022/04/24 00:58:10;;;;;;;10.73;7.40;;;10.20;99.90;;;;;;5113058;28;20039;-73
2022/04/24 01:00:38;;;;;;;14.13;7.47;;;10.10;99.90;;;;;;5112690;28;20456;-73
2022/04/24 01:03:04;;;;;;;10.77;7.32;;;10.10;99.90;;;;;;5112876;28;20043;-73
2022/04/24 01:05:29;;;;;;;11.85;6.65;;;10.10;99.90;;;;;;5112668;28;20440;-73
2022/04/24 01:07:55;;;;;;;9.23;6.93;;;10.10;99.90;;;;;;5112981;28;20070;-72
2022/04/24 01:10:20;;;;;;;11.90;7.70;;;10.00;99.90;;;;;;5112590;28;20067;-72
2022/04/24 01:12:46;;;;;;;10.18;6.78;;;10.00;99.90;;;;;;5112648;28;20036;-72
2022/04/24 01:15:11;;;;;;;13.00;6.80;;;10.00;99.90;;;;;;5094345;28;20568;-73
2022/04/24 01:17:37;;;;;;;10.57;7.03;;;10.00;99.90;;;;;;5093858;28;20040;-72
2022/04/24 01:20:03;;;;;;;11.23;7.13;;;10.00;99.90;;;;;;5094084;28;20407;-72
2022/04/24 01:22:29;;;;;;;12.43;6.70;;;10.00;99.90;;;;;;5094332;28;20036;-72
2022/04/24 01:24:54;;;;;;;12.52;6.85;;;10.00;99.90;;;;;;5094262;28;20044;-72
2022/04/24 01:27:20;;;;;;;10.82;6.80;;;10.00;99.90;;;;;;5094442;28;20047;-73
2022/04/24 01:29:45;;;;;;;10.02;6.45;;;10.00;99.90;;;;;;5093871;28;20048;-72
2022/04/24 01:32:11;;;;;;;10.45;7.05;;;9.90;99.90;;;;;;5112449;28;20130;-72
2022/04/24 01:34:36;;;;;;;14.23;7.57;;;9.90;99.90;;;;;;5112431;28;20115;-72
2022/04/24 01:37:02;;;;;;;8.93;6.32;;;9.90;99.90;;;;;;5094060;28;20031;-74
2022/04/24 01:39:28;;;;;;;14.38;6.55;;;9.90;99.90;;;;;;5112098;28;20046;-72
2022/04/24 01:41:55;;;;;;;8.75;6.53;;;9.90;99.90;;;;;;5093854;28;20050;-72
2022/04/24 01:44:21;;;;;;;8.88;6.55;;;9.90;99.90;;;;;;5112076;28;20036;-72
2022/04/24 01:46:47;;;;;;;12.10;6.63;;;9.80;99.90;;;;;;5093668;28;20043;-72
2022/04/24 01:49:12;;;;;;;11.95;7.47;;;9.80;99.90;;;;;;5093762;28;20488;-73
2022/04/24 01:51:38;;;;;;;10.27;6.25;;;9.80;99.90;;;;;;5093966;28;20088;-72
2022/04/24 01:54:04;;;;;;;11.63;7.47;;;9.80;99.90;;;;;;5093719;28;20567;-72
2022/04/24 01:56:29;;;;;;;11.57;6.78;;;9.80;99.90;;;;;;5093741;28;20140;-72
2022/04/24 01:58:55;;;;;;;9.27;6.80;;;9.70;99.90;;;;;;5093418;28;20047;-72
2022/04/24 02:01:20;;;;;;;12.27;7.00;;;9.70;99.90;;;;;;5093702;28;20032;-72
2022/04/24 02:03:46;;;;;;;9.65;6.50;;;9.60;99.90;;;;;;5093492;28;20126;-72
2022/04/24 02:06:12;;;;;;;10.20;6.80;;;9.60;99.90;;;;;;5093445;28;20403;-72
2022/04/24 02:08:38;;;;;;;11.27;7.15;;;9.50;99.90;;;;;;5111649;28;20410;-72
2022/04/24 02:11:06;;;;;;;10.35;6.38;;;9.50;99.90;;;;;;5093476;28;20036;-72
2022/04/24 02:13:31;;;;;;;11.75;7.13;;;9.50;99.90;;;;;;5093374;28;20116;-72
2022/04/24 02:15:57;;;;;;;8.95;6.35;;;9.50;99.90;;;;;;5092836;28;20478;-72
2022/04/24 02:18:23;;;;;;;9.48;7.03;;;9.50;99.90;;;;;;5093668;28;20126;-72
2022/04/24 02:20:48;;;;;;;10.82;6.93;;;9.50;99.90;;;;;;5093735;28;20089;-72
2022/04/24 02:23:14;;;;;;;9.50;6.80;;;9.50;99.90;;;;;;5093674;28;20039;-72
2022/04/24 02:25:39;;;;;;;9.25;6.40;;;9.40;99.90;;;;;;5111809;28;20109;-72
2022/04/24 02:28:05;;;;;;;13.13;6.90;;;9.40;99.90;;;;;;5111918;28;20040;-72
2022/04/24 02:30:32;;;;;;;9.73;6.40;;;9.30;99.90;;;;;;5094457;28;20035;-72
2022/04/24 02:33:00;;;;;;;10.20;7.18;;;9.30;99.90;;;;;;5078235;28;20063;-73
2022/04/24 02:35:26;;;;;;;10.65;7.20;;;9.30;99.90;;;;;;5094954;28;20115;-73
2022/04/24 02:37:52;;;;;;;9.13;7.05;;;9.30;99.90;;;;;;5113234;28;20043;-73
2022/04/24 02:40:22;;;;;;;9.95;6.70;;;9.30;99.90;;;;;;5096311;28;20042;-72
2022/04/24 02:42:51;;;;;;;10.18;6.53;;;9.20;99.90;;;;;;5112660;28;20108;-74
2022/04/24 02:45:18;;;;;;;11.50;6.70;;;9.20;99.90;;;;;;5114569;28;20042;-72
2022/04/24 02:47:45;;;;;;;10.18;6.90;;;9.10;99.90;;;;;;5115695;28;20035;-72
2022/04/24 02:50:11;;;;;;;8.68;6.82;;;9.20;99.90;;;;;;5115274;28;20122;-73
2022/04/24 02:52:53;;;;;;;11.13;7.03;;;9.10;99.90;;;;;;5115398;28;20123;-72
2022/04/24 02:55:20;;;;;;;11.68;6.38;;;9.10;99.90;;;;;;5097120;28;20514;-72
2022/04/24 02:57:46;;;;;;;8.40;6.68;;;9.00;99.90;;;;;;5097132;28;20044;-72
2022/04/24 03:00:14;;;;;;;7.78;5.32;;;9.10;99.90;;;;;;5096950;28;20043;-73
2022/04/24 03:02:44;;;;;;;8.88;6.07;;;9.00;99.90;;;;;;5115431;28;20130;-73
2022/04/24 03:05:30;;;;;;;9.10;6.07;;;8.90;99.90;;;;;;5096846;28;20040;-72
2022/04/24 03:07:56;;;;;;;10.93;6.47;;;9.00;99.90;;;;;;5114767;28;20047;-74
2022/04/24 03:10:21;;;;;;;8.38;5.55;;;9.00;99.90;;;;;;5096555;28;20039;-72
2022/04/24 03:12:47;;;;;;;10.13;6.10;;;9.00;99.90;;;;;;5096686;28;20100;-72
2022/04/24 03:15:14;;;;;;;8.02;5.57;;;9.00;99.90;;;;;;5096571;28;20036;-73
2022/04/24 03:17:40;;;;;;;9.57;6.22;;;8.90;99.90;;;;;;5114368;28;20436;-73
2022/04/24 03:20:08;;;;;;;9.23;5.90;;;8.90;99.90;;;;;;5096477;28;20039;-72
2022/04/24 03:22:34;;;;;;;9.75;6.28;;;8.90;99.90;;;;;;5096506;28;20031;-72
2022/04/24 03:25:01;;;;;;;11.57;6.35;;;8.90;99.90;;;;;;5114795;28;20167;-72
2022/04/24 03:27:26;;;;;;;7.15;5.63;;;8.80;99.90;;;;;;5096473;28;20032;-73
2022/04/24 03:29:52;;;;;;;9.90;5.90;;;8.80;99.90;;;;;;5114320;28;20653;-72
2022/04/24 03:32:18;;;;;;;11.35;6.57;;;8.80;99.90;;;;;;5114866;28;20511;-72
2022/04/24 03:34:46;;;;;;;9.52;6.35;;;8.80;99.90;;;;;;5096246;28;20035;-73
2022/04/24 03:37:11;;;;;;;7.53;5.78;;;8.70;99.90;;;;;;5096364;28;20046;-72
2022/04/24 03:39:37;;;;;;;12.50;7.32;;;8.80;99.90;;;;;;5096092;28;20539;-73
2022/04/24 03:42:04;;;;;;;7.47;6.22;;;8.70;99.90;;;;;;5114639;28;20047;-72
2022/04/24 03:44:32;;;;;;;8.10;6.50;;;8.70;99.90;;;;;;5095983;28;20074;-72
2022/04/24 03:46:57;;;;;;;8.90;6.13;;;8.60;99.90;;;;;;5114407;28;20487;-72
2022/04/24 03:49:23;;;;;;;9.30;5.80;;;8.50;99.90;;;;;;5096022;28;20051;-72
2022/04/24 03:51:48;;;;;;;11.93;6.47;;;8.50;99.90;;;;;;5114485;28;20043;-72
2022/04/24 03:54:14;;;;;;;10.48;6.85;;;8.50;99.90;;;;;;5079647;28;20032;-72
2022/04/24 03:56:39;;;;;;;10.00;6.47;;;8.50;99.90;;;;;;5079316;28;20093;-73
2022/04/24 03:59:05;;;;;;;7.47;5.78;;;8.50;99.90;;;;;;5096201;28;20043;-73
2022/04/24 04:01:30;;;;;;;8.25;6.47;;;8.40;99.90;;;;;;5115828;28;20519;-72
2022/04/24 04:03:57;;;;;;;8.15;6.18;;;8.30;99.90;;;;;;5097550;28;20035;-72
2022/04/24 04:06:23;;;;;;;11.07;6.55;;;8.30;99.90;;;;;;5064254;28;20039;-73
2022/04/24 04:08:49;;;;;;;7.95;5.85;;;8.40;99.90;;;;;;5115597;28;20562;-72
2022/04/24 04:11:14;;;;;;;7.18;6.05;;;8.30;99.90;;;;;;5114983;28;20073;-72
2022/04/24 04:13:40;;;;;;;10.35;6.35;;;8.30;99.90;;;;;;5110709;28;20126;-75
2022/04/24 04:16:05;;;;;;;8.00;6.75;;;8.20;99.90;;;;;;5110952;28;20093;-73
2022/04/24 04:18:31;;;;;;;9.68;5.82;;;8.10;99.90;;;;;;5112353;28;20550;-72
2022/04/24 04:20:57;;;;;;;11.60;6.75;;;8.10;99.90;;;;;;5113434;28;20118;-72
2022/04/24 04:23:23;;;;;;;9.50;6.13;;;8.10;99.90;;;;;;5095084;28;20201;-72
2022/04/24 04:25:48;;;;;;;8.77;6.45;;;8.00;99.90;;;;;;5112562;28;20047;-73
2022/04/24 04:28:14;;;;;;;9.20;6.88;;;8.00;99.90;;;;;;5113420;28;20039;-72
2022/04/24 04:30:39;;;;;;;11.88;6.40;;;7.90;99.90;;;;;;5113500;28;20082;-72
2022/04/24 04:33:05;;;;;;;10.18;6.35;;;7.90;99.90;;;;;;5113395;28;20054;-73
2022/04/24 04:35:31;;;;;;;8.63;6.57;;;7.90;99.90;;;;;;5113507;28;20043;-73
2022/04/24 04:37:56;;;;;;;9.95;6.57;;;7.90;99.90;;;;;;5113537;28;20031;-73
2022/04/24 04:40:22;;;;;;;13.45;6.88;;;7.80;99.90;;;;;;5113123;28;20040;-72
2022/04/24 04:42:48;;;;;;;7.57;6.28;;;7.80;99.90;;;;;;5094952;28;20040;-73
2022/04/24 04:45:17;;;;;;;9.40;6.82;;;7.80;99.90;;;;;;5095262;28;20040;-72
2022/04/24 04:47:43;;;;;;;8.63;6.95;;;7.70;99.90;;;;;;5094990;28;20122;-72
2022/04/24 04:50:09;;;;;;;8.05;6.15;;;7.70;99.90;;;;;;5094729;28;20487;-73
2022/04/24 04:52:35;;;;;;;12.00;6.65;;;7.70;99.90;;;;;;5094771;28;20089;-72
2022/04/24 04:55:03;;;;;;;13.98;7.53;;;7.70;99.90;;;;;;5094789;28;20039;-73
2022/04/24 04:57:28;;;;;;;9.23;7.05;;;7.70;99.90;;;;;;5094631;28;20495;-72
2022/04/24 04:59:54;;;;;;;9.75;7.35;;;7.80;99.90;;;;;;5112804;28;20032;-72
2022/04/24 05:02:19;;;;;;;10.68;6.97;;;7.80;99.90;;;;;;5094711;28;20101;-72
2022/04/24 05:04:45;;;;;;;9.82;7.57;;;7.80;99.90;;;;;;5094523;28;20075;-74
2022/04/24 05:07:11;;;;;;;9.60;7.35;;;7.90;99.90;;;;;;5112396;28;20077;-72
2022/04/24 05:09:40;;;;;;;10.20;6.93;;;7.90;99.90;;;;;;5112623;28;20054;-72
2022/04/24 05:12:07;;;;;;;10.07;7.10;;;8.10;99.90;;;;;;5094240;28;20084;-73
2022/04/24 05:14:33;;;;;;;9.75;6.80;;;8.10;99.90;;;;;;5094318;28;20043;-72
2022/04/24 05:16:59;;;;;;;8.90;6.45;;;8.10;99.90;;;;;;5094601;28;20164;-72
2022/04/24 05:19:25;;;;;;;8.57;7.15;;;8.10;99.90;;;;;;5094285;28;20039;-72
2022/04/24 05:21:52;;;;;;;13.52;7.10;;;8.20;99.90;;;;;;5094271;28;20040;-71
2022/04/24 05:24:17;;;;;;;9.07;7.10;;;8.30;99.90;;;;;;5094351;28;20441;-72
2022/04/24 05:26:43;;;;;;;9.68;6.88;;;8.40;99.90;;;;;;5094087;28;20158;-72
2022/04/24 05:29:08;;;;;;;9.88;6.57;;;8.50;99.90;;;;;;5093872;28;20131;-72
2022/04/24 05:31:34;;;;;;;9.80;6.97;;;8.70;99.90;;;;;;5094159;28;20071;-72
2022/04/24 05:34:00;;;;;;;15.75;7.00;;;8.80;99.90;;;;;;5094129;28;20047;-73
2022/04/24 05:36:25;;;;;;;9.85;6.40;;;8.90;99.90;;;;;;5094101;28;20059;-72
2022/04/24 05:38:51;;;;;;;12.30;6.78;;;8.90;99.90;;;;;;5112013;28;20054;-72
2022/04/24 05:41:16;;;;;;;10.65;6.50;;;8.90;99.90;;;;;;5093827;28;20036;-72
2022/04/24 05:43:42;;;;;;;10.25;6.57;;;9.00;99.90;;;;;;5112320;28;20039;-73
2022/04/24 05:46:07;;;;;;;10.10;6.45;;;9.30;99.90;;;;;;5093878;28;20039;-71
2022/04/24 05:48:33;;;;;;;10.23;7.38;;;9.30;99.90;;;;;;5093588;28;20074;-72
2022/04/24 05:50:59;;;;;;;9.82;5.95;;;9.30;99.90;;;;;;5112014;28;20098;-72
2022/04/24 05:53:25;;;;;;;11.82;6.75;;;9.30;99.90;;;;;;5093645;28;20046;-73
2022/04/24 05:55:50;;;;;;;9.05;6.45;;;9.40;99.90;;;;;;5093531;28;20044;-72
2022/04/24 05:58:16;;;;;;;9.32;6.55;;;9.50;99.90;;;;;;5077115;28;20405;-73
2022/04/24 06:00:42;;;;;;;11.38;5.97;;;9.60;99.90;;;;;;5076783;28;20035;-71
2022/04/24 06:03:07;;;;;;;9.18;5.95;;;9.60;99.90;;;;;;5093540;28;20043;-72
2022/04/24 06:05:33;;;;;;;11.93;6.65;;;9.50;99.90;;;;;;5093639;28;20444;-72
2022/04/24 06:07:58;;;;;;;10.68;5.97;;;9.50;99.90;;;;;;5093446;28;20035;-74
2022/04/24 06:10:24;;;;;;;8.40;5.65;;;9.20;99.90;;;;;;5111315;28;20039;-71
2022/04/24 06:12:55;;;;;;;9.00;6.70;;;9.20;99.90;;;;;;5093535;28;20050;-72
2022/04/24 06:15:25;;;;;;;9.30;5.85;;;9.30;99.90;;;;;;5093258;28;20044;-73
2022/04/24 06:17:52;;;;;;;12.88;6.25;;;9.20;99.90;;;;;;5111654;28;20047;-74
2022/04/24 06:20:19;;;;;;;8.27;6.32;;;9.20;99.90;;;;;;5092560;28;20466;-72
2022/04/24 06:22:58;;;;;;;8.52;5.85;;;9.30;99.90;;;;;;5093241;28;20625;-73
2022/04/24 06:25:27;;;;;;;9.13;6.30;;;9.40;99.90;;;;;;5093176;28;20071;-72
2022/04/24 06:27:53;;;;;;;11.10;6.50;;;9.40;99.90;;;;;;5093042;28;20491;-72
2022/04/24 06:30:25;;;;;;;8.45;6.10;;;9.50;99.90;;;;;;5076343;28;20169;-73
2022/04/24 06:32:50;;;;;;;11.32;6.40;;;9.50;99.90;;;;;;5111533;28;20039;-73
2022/04/24 06:35:17;;;;;;;12.00;7.00;;;9.50;99.90;;;;;;5093032;28;20036;-73
2022/04/24 06:37:44;;;;;;;8.73;6.22;;;9.40;99.90;;;;;;5111505;28;20032;-72
2022/04/24 06:40:11;;;;;;;9.45;6.03;;;9.50;99.90;;;;;;5092738;28;20036;-73
2022/04/24 06:42:57;;;;;;;9.93;6.57;;;9.60;99.90;;;;;;5093186;28;20040;-73
2022/04/24 06:45:31;;;;;;;10.35;6.63;;;9.70;99.90;;;;;;5093029;28;20072;-72
2022/04/24 06:48:11;;;;;;;9.50;6.18;;;9.70;99.90;;;;;;5092972;28;20491;-72
2022/04/24 06:50:39;;;;;;;10.32;6.53;;;9.70;99.90;;;;;;5092925;28;20421;-72
2022/04/24 06:53:07;;;;;;;8.63;6.32;;;9.80;99.90;;;;;;5111027;28;20119;-73
2022/04/24 06:55:34;;;;;;;11.80;6.50;;;9.80;99.90;;;;;;5092819;28;20039;-72
2022/04/24 06:58:01;;;;;;;11.40;5.88;;;9.80;99.90;;;;;;5111247;28;20404;-73
2022/04/24 07:00:29;;;;;;;11.30;6.38;;;9.90;99.90;;;;;;5092549;28;20522;-73
2022/04/24 07:02:54;;;;;;;13.70;6.50;;;10.00;99.90;;;;;;5111226;28;20044;-72
2022/04/24 07:05:25;;;;;;;8.18;6.13;;;10.10;99.90;;;;;;5111028;28;20055;-74
2022/04/24 07:07:51;;;;;;;10.43;7.25;;;10.10;99.90;;;;;;5111074;28;20554;-73
2022/04/24 07:10:16;;;;;;;12.48;6.20;;;10.00;99.90;;;;;;5110942;28;20118;-73
2022/04/24 07:12:47;;;;;;;12.60;6.47;;;10.00;99.90;;;;;;5092808;28;20073;-74
2022/04/24 07:15:13;;;;;;;8.88;6.40;;;10.10;99.90;;;;;;5092948;28;20039;-72
2022/04/24 07:17:40;;;;;;;8.15;6.25;;;10.20;99.90;;;;;;5111096;28;20089;-73
2022/04/24 07:20:07;;;;;;;10.77;6.50;;;10.30;99.90;;;;;;5110611;28;20040;-74
2022/04/24 07:22:45;;;;;;;9.30;5.65;;;10.30;99.90;;;;;;5092670;28;20453;-75
2022/04/24 07:25:12;;;;;;;10.45;5.57;;;10.30;99.90;;;;;;5092544;28;20075;-73
2022/04/24 07:27:39;;;;;;;7.75;5.53;;;10.30;99.90;;;;;;5110912;28;20040;-72
2022/04/24 07:30:05;;;;;;;9.80;5.80;;;10.30;99.90;;;;;;5111518;28;20044;-73
2022/04/24 07:32:38;;;;;;;11.60;6.22;;;10.40;99.90;;;;;;5096146;28;20507;-73
2022/04/24 07:35:04;;;;;;;12.10;6.68;;;10.40;99.90;;;;;;5114665;28;20039;-73
2022/04/24 07:37:32;;;;;;;12.38;6.22;;;10.40;99.90;;;;;;5079451;28;20039;-73
2022/04/24 07:39:58;;;;;;;11.25;6.63;;;10.50;99.90;;;;;;5095954;28;20129;-72
2022/04/24 07:42:24;;;;;;;11.25;6.53;;;10.60;99.90;;;;;;5114578;28;20067;-73
2022/04/24 07:44:51;;;;;;;11.30;6.32;;;10.80;99.90;;;;;;5114356;28;20564;-73
2022/04/24 07:47:16;;;;;;;11.35;6.80;;;10.80;99.90;;;;;;5096013;28;20078;-72
2022/04/24 07:49:42;;;;;;;9.30;5.80;;;11.00;99.90;;;;;;5114286;28;20392;-72
2022/04/24 07:52:07;;;;;;;11.40;6.20;;;11.00;99.90;;;;;;5114126;28;20040;-73
2022/04/24 07:54:33;;;;;;;9.88;5.80;;;11.10;99.90;;;;;;5114085;28;20027;-73
2022/04/24 07:56:58;;;;;;;9.57;5.53;;;11.30;99.90;;;;;;5114149;28;20040;-72
2022/04/24 07:59:24;;;;;;;8.88;5.90;;;11.40;99.90;;;;;;5113888;28;20032;-74
2022/04/24 08:01:51;;;;;;;8.57;5.72;;;11.50;99.90;;;;;;5114112;28;20074;-73
2022/04/24 08:04:17;;;;;;;8.23;5.00;;;11.60;99.90;;;;;;5114092;28;20484;-72
2022/04/24 08:06:43;;;;;;;8.02;5.70;;;11.60;99.90;;;;;;5114157;28;20047;-72
2022/04/24 08:09:08;;;;;;;9.50;5.50;;;11.70;99.90;;;;;;5095339;28;20511;-73
2022/04/24 08:11:34;;;;;;;7.75;5.07;;;11.60;99.90;;;;;;5095825;28;20031;-72
2022/04/24 08:14:00;;;;;;;8.80;5.68;;;11.70;99.90;;;;;;5113618;28;20072;-73
2022/04/24 08:16:26;;;;;;;8.73;4.88;;;11.70;99.90;;;;;;5095521;28;20042;-73
2022/04/24 08:18:55;;;;;;;8.02;4.97;;;11.70;99.90;;;;;;5095093;28;20036;-74
2022/04/24 08:21:20;;;;;;;6.00;4.07;;;11.80;99.90;;;;;;5095673;28;20035;-73
2022/04/24 08:23:46;;;;;;;9.30;4.90;;;11.80;99.90;;;;;;5113668;28;20042;-74
2022/04/24 08:26:12;;;;;;;7.90;4.38;;;11.90;99.90;;;;;;5113734;28;20040;-73
2022/04/24 08:28:37;;;;;;;8.40;4.95;;;12.00;99.90;;;;;;5095198;28;20560;-72
2022/04/24 08:31:03;;;;;;;8.23;4.85;;;12.00;99.90;;;;;;5113541;28;20503;-73
2022/04/24 08:33:28;;;;;;;9.05;4.57;;;12.00;99.90;;;;;;5095182;28;20094;-73
2022/04/24 08:35:54;;;;;;;5.78;4.50;;;12.00;99.90;;;;;;5113459;28;20463;-73
2022/04/24 08:38:19;;;;;;;6.80;4.10;;;12.10;99.90;;;;;;5113450;28;20439;-73
2022/04/24 08:40:46;;;;;;;8.63;4.93;;;12.10;99.90;;;;;;5113281;28;20112;-73
2022/04/24 08:43:15;;;;;;;4.97;4.00;;;12.30;99.90;;;;;;5112452;28;20389;-75
2022/04/24 08:45:42;;;;;;;7.50;4.60;;;12.30;99.90;;;;;;5113466;28;20066;-72
2022/04/24 08:48:08;;;;;;;6.03;4.03;;;12.40;99.50;;;;;;5113408;28;20112;-73
2022/04/24 08:50:33;;;;;;;5.03;4.00;;;12.50;99.40;;;;;;5113143;28;20127;-72
2022/04/24 08:53:01;;;;;;;5.88;4.03;;;12.60;99.30;;;;;;5112951;28;20065;-73
2022/04/24 08:55:29;;;;;;;11.82;4.43;;;12.80;98.70;;;;;;5112998;28;20036;-73
2022/04/24 08:57:54;;;;;;;6.57;3.72;;;12.80;97.60;;;;;;5112559;28;20123;-74
2022/04/24 09:00:20;;;;;;;4.25;3.58;;;12.90;96.40;;;;;;5112600;28;20123;-74
2022/04/24 09:02:47;;;;;;;7.55;3.70;;;13.00;95.70;;;;;;5113049;28;20055;-73
2022/04/24 09:05:13;;;;;;;5.60;3.33;;;13.10;96.40;;;;;;5112744;28;20048;-73
2022/04/24 09:07:43;;;;;;;9.90;3.60;;;13.20;94.90;;;;;;5094533;28;20039;-73
2022/04/24 09:10:11;;;;;;;5.45;3.20;;;13.20;94.40;;;;;;5094112;28;20043;-74
2022/04/24 09:12:38;;;;;;;5.25;3.45;;;13.30;94.80;;;;;;5112612;28;20119;-73
2022/04/24 09:15:04;;;;;;;7.28;3.20;;;13.40;94.90;;;;;;5094597;28;20043;-73
2022/04/24 09:17:34;;;;;;;6.03;3.30;;;13.60;95.50;;;;;;5113025;28;20464;-73
2022/04/24 09:20:14;;;;;;;4.13;2.67;;;13.60;94.00;;;;;;5093954;28;20104;-73
2022/04/24 09:22:39;;;;;;;12.35;3.22;;;13.70;93.30;;;;;;5094246;28;20047;-73
2022/04/24 09:25:06;;;;;;;3.67;2.58;;;13.80;88.10;;;;;;5112424;28;20363;-73
2022/04/24 09:27:34;;;;;;;6.05;2.90;;;13.80;87.20;;;;;;5094640;28;20044;-73
2022/04/24 09:30:10;;;;;;;8.35;2.95;;;13.90;81.10;;;;;;5093969;28;20173;-73
2022/04/24 09:32:53;;;;;;;7.13;2.97;;;14.10;77.20;;;;;;5112377;28;20495;-73
2022/04/24 09:35:30;;;;;;;4.43;3.33;;;13.90;79.30;;;;;;5112280;28;20545;-73
2022/04/24 09:38:17;;;;;;;5.50;2.88;;;14.10;84.30;;;;;;5094088;28;20159;-74
2022/04/24 09:40:49;;;;;;;4.22;3.13;;;14.20;84.70;;;;;;5093885;28;20032;-73
2022/04/24 09:43:17;;;;;;;5.30;3.13;;;14.30;81.20;;;;;;5112356;28;20054;-73
2022/04/24 09:46:01;;;;;;;5.55;3.25;;;14.40;89.80;;;;;;5094050;28;20380;-72
2022/04/24 09:48:27;;;;;;;4.13;3.38;;;14.40;77.50;;;;;;5093697;28;20035;-73
2022/04/24 09:50:54;;;;;;;4.57;3.15;;;14.40;79.20;;;;;;5093942;28;20039;-73
2022/04/24 09:53:21;;;;;;;4.57;3.13;;;14.40;76.40;;;;;;5093551;28;20047;-73
2022/04/24 09:55:51;;;;;;;4.13;2.95;;;14.40;78.70;;;;;;5093553;28;20069;-73
2022/04/24 09:58:17;;;;;;;3.60;2.83;;;14.40;78.80;;;;;;5093434;28;20047;-75
2022/04/24 10:00:44;;;;;;;5.20;2.92;;;14.50;82.50;;;;;;5093617;28;20085;-73
2022/04/24 10:03:13;;;;;;;6.82;3.00;;;14.60;85.10;;;;;;5112040;28;20036;-73
2022/04/24 10:05:42;;;;;;;5.57;2.75;;;14.60;80.20;;;;;;5093434;28;20077;-73
2022/04/24 10:08:08;;;;;;;8.57;2.88;;;14.60;67.10;;;;;;5111666;28;20057;-73
2022/04/24 10:10:34;;;;;;;5.65;2.58;;;14.60;63.80;;;;;;5093348;28;20040;-74
2022/04/24 10:13:01;;;;;;;4.10;2.90;;;14.70;66.90;;;;;;5093282;28;20047;-73
2022/04/24 10:15:28;;;;;;;5.65;2.30;;;14.80;70.10;;;;;;5111683;28;20118;-73
2022/04/24 10:18:16;;;;;;;3.38;2.28;;;14.90;72.50;;;;;;5093309;28;20069;-73
2022/04/24 10:20:44;;;;;;;6.45;3.25;;;14.90;80.20;;;;;;5093312;28;20044;-72
2022/04/24 10:23:11;;;;;;;7.45;3.28;;;14.90;81.70;;;;;;5111524;28;20039;-73
2022/04/24 10:25:40;;;;;;;5.95;3.45;;;14.90;78.20;;;;;;5111310;28;20047;-73
2022/04/24 10:28:17;;;;;;;4.47;2.97;;;14.90;74.50;;;;;;5093308;28;20516;-74
2022/04/24 10:31:01;;;;;;;7.25;3.20;;;14.90;71.90;;;;;;5092962;28;20526;-74
2022/04/24 10:33:28;;;;;;;5.65;2.88;;;14.80;68.80;;;;;;5076221;28;20137;-73
2022/04/24 10:35:59;;;;;;;6.00;3.05;;;14.70;72.90;;;;;;5111472;28;20071;-73
2022/04/24 10:38:26;;;;;;;3.70;3.05;;;14.90;79.90;;;;;;5093059;28;20109;-73
2022/04/24 10:41:06;;;;;;;4.95;2.95;;;14.90;73.10;;;;;;5111569;28;20042;-72
2022/04/24 10:43:44;;;;;;;5.25;3.22;;;15.00;76.10;;;;;;5093030;28;20035;-73
2022/04/24 10:46:41;;;;;;;5.97;2.95;;;14.90;72.60;;;;;;5111243;28;20201;-72
2022/04/24 10:49:10;;;;;;;7.05;2.90;;;14.90;74.30;;;;;;5074485;28;20118;-73
2022/04/24 10:51:40;;;;;;;5.10;3.10;;;15.00;70.90;;;;;;5111254;28;20061;-73
2022/04/24 10:54:08;;;;;;;4.35;3.15;;;15.10;72.00;;;;;;5092688;28;20088;-74
2022/04/24 10:56:36;;;;;;;3.97;2.90;;;15.30;64.60;;;;;;5092850;28;20138;-73
2022/04/24 10:59:22;;;;;;;4.18;2.70;;;15.40;64.40;;;;;;5092969;28;20491;-73
2022/04/24 11:01:55;;;;;;;5.40;2.80;;;15.30;57.90;;;;;;5093047;28;20066;-74
2022/04/24 11:04:22;;;;;;;3.33;2.88;;;15.20;60.60;;;;;;5111084;28;20059;-74
2022/04/24 11:06:52;;;;;;;4.07;2.40;;;15.30;60.60;;;;;;5079893;28;20043;-74
2022/04/24 11:09:19;;;;;;;3.72;2.70;;;15.30;58.30;;;;;;5096518;28;20081;-73
2022/04/24 11:11:49;;;;;;;2.85;2.22;;;15.10;60.70;;;;;;5096834;28;20047;-73
2022/04/24 11:14:24;;;;;;;5.20;3.08;;;15.30;68.20;;;;;;5115280;28;20665;-72
2022/04/24 11:17:10;;;;;;;8.13;2.67;;;15.50;62.50;;;;;;5097187;28;20035;-73
2022/04/24 11:19:38;;;;;;;4.07;2.67;;;15.40;59.00;;;;;;5115220;28;20083;-74
2022/04/24 11:22:08;;;;;;;4.75;2.53;;;15.40;66.60;;;;;;5097382;28;20063;-73
2022/04/24 11:24:36;;;;;;;7.32;2.95;;;15.40;67.10;;;;;;5115760;28;20059;-74
2022/04/24 11:27:04;;;;;;;3.75;2.65;;;15.50;69.10;;;;;;5115756;28;20073;-74
2022/04/24 11:29:32;;;;;;;3.83;2.53;;;15.60;69.70;;;;;;5080420;28;20039;-75
2022/04/24 11:31:57;;;;;;;6.57;2.80;;;15.60;66.70;;;;;;5097626;28;20043;-73
2022/04/24 11:34:24;;;;;;;5.00;2.65;;;15.50;63.50;;;;;;5115789;28;20036;-73
2022/04/24 11:36:54;;;;;;;4.15;2.72;;;15.40;63.70;;;;;;5115105;28;20495;-73
2022/04/24 11:39:20;;;;;;;5.25;2.70;;;15.50;68.40;;;;;;5096072;28;20043;-73
2022/04/24 11:41:46;;;;;;;4.47;2.40;;;15.40;63.80;;;;;;5114597;28;20131;-73
2022/04/24 11:52:34;;;;;;;6.40;2.67;;;15.60;62.30;;;;;;5114442;28;20054;-73
2022/04/24 11:55:00;;;;;;;5.18;2.15;;;15.30;59.70;;;;;;5114217;28;20088;-72
2022/04/24 11:57:26;;;;;;;4.57;3.35;;;15.30;60.10;;;;;;5114460;28;20043;-73
2022/04/24 11:59:54;;;;;;;5.15;2.70;;;15.40;61.60;;;;;;5114197;28;20400;-73
2022/04/24 12:02:24;;;;;;;6.20;2.60;;;15.30;60.10;;;;;;5114346;28;20108;-73
2022/04/24 12:04:50;;;;;;;4.78;3.53;;;15.30;63.00;;;;;;5114107;28;20035;-73
2022/04/24 12:07:16;;;;;;;4.20;2.35;;;15.30;63.80;;;;;;5114190;28;20040;-73
2022/04/24 12:09:41;;;;;;;4.32;3.08;;;15.30;66.60;;;;;;5113697;28;20036;-73
2022/04/24 12:12:15;;;;;;;4.65;2.88;;;15.40;65.50;;;;;;5113920;28;20476;-74
2022/04/24 12:14:48;;;;;;;7.47;2.97;;;15.50;63.00;;;;;;5114041;28;20088;-73
2022/04/24 12:17:13;;;;;;;;;;;15.30;66.10;;;;;;5112943;28;20048;-73
2022/04/24 12:19:55;;;;;;;5.13;2.20;;;15.20;64.50;;;;;;5113586;28;19938;-73
2022/04/24 12:22:31;;;;;;;4.18;2.53;;;15.20;60.60;;;;;;5113832;28;20043;-73
2022/04/24 12:25:08;;;;;;;3.88;2.60;;;15.20;67.30;;;;;;5113877;28;20071;-73
2022/04/24 12:27:34;;;;;;;3.72;2.35;;;15.40;66.50;;;;;;5113707;28;20082;-73
2022/04/24 12:30:02;;;;;;;4.53;2.40;;;15.50;64.70;;;;;;5095565;28;20035;-74
2022/04/24 12:32:28;;;;;;;8.88;2.72;;;15.30;62.50;;;;;;5113782;28;20051;-75
2022/04/24 12:34:53;;;;;;;3.67;2.38;;;15.30;64.40;;;;;;5095766;28;20040;-73
2022/04/24 12:37:33;;;;;;;6.38;2.60;;;15.20;63.90;;;;;;5113823;28;20039;-73
2022/04/24 12:40:00;;;;;;;4.13;2.60;;;15.00;66.60;;;;;;5113851;28;20043;-73
2022/04/24 12:42:26;;;;;;;5.32;2.60;;;15.00;72.20;;;;;;5096329;28;20637;-73
2022/04/24 12:44:53;;;;;;;4.32;2.60;;;15.20;68.50;;;;;;5078920;28;20090;-74
2022/04/24 12:47:20;;;;;;;4.03;2.33;;;15.20;65.60;;;;;;5114934;28;20078;-73
2022/04/24 12:49:47;;;;;;;4.70;2.65;;;15.30;66.60;;;;;;5097094;28;20043;-74
2022/04/24 12:52:13;;;;;;;3.25;2.40;;;15.30;63.50;;;;;;5115484;28;20079;-74
2022/04/24 12:54:39;;;;;;;4.53;2.53;;;15.40;67.10;;;;;;5114464;28;20392;-73
2022/04/24 12:57:07;;;;;;;4.28;2.13;;;15.60;66.30;;;;;;5114177;28;20040;-73
2022/04/24 12:59:34;;;;;;;3.13;2.13;;;15.60;63.40;;;;;;5094272;28;20119;-74